Time;durP1;ratioP1;P1;durP2;ratioP2;P2;SDS_P1;SDS_P2;PMS_P1;PMS_P2;Temp;Humidity;BMP_temperature;BMP_pressure;BME280_temperature;BME280_humidity;BME280_pressure;Samples;Min_cycle;Max_cycle;Signal;HPM_P1;HPM_P2
2023/07/28 00:02:05;;;;;;;10.73;4.82;;;19.00;99.90;;;;;;5052399;28;20029;-42
2023/07/28 00:04:30;;;;;;;8.85;3.78;;;19.00;99.90;;;;;;5052705;28;20477;-50
2023/07/28 00:06:56;;;;;;;7.18;4.13;;;19.00;99.90;;;;;;5051542;28;20017;-48
2023/07/28 00:09:23;;;;;;;7.82;4.30;;;19.00;99.90;;;;;;5051042;28;20029;-49
2023/07/28 00:11:49;;;;;;;10.18;4.85;;;19.00;99.90;;;;;;5052589;28;20492;-46
2023/07/28 00:14:14;;;;;;;9.98;4.13;;;19.00;99.90;;;;;;5052319;28;20374;-47
2023/07/28 00:16:40;;;;;;;5.30;4.20;;;19.00;99.90;;;;;;5036550;28;20021;-48
2023/07/28 00:19:06;;;;;;;7.28;4.32;;;19.00;99.90;;;;;;5032407;28;20386;-49
2023/07/28 00:21:31;;;;;;;12.18;4.13;;;19.00;99.90;;;;;;5032556;28;20398;-48
2023/07/28 00:23:57;;;;;;;11.85;3.83;;;19.00;99.90;;;;;;5033006;28;20044;-46
2023/07/28 00:26:23;;;;;;;8.30;4.03;;;19.00;99.90;;;;;;5032247;28;20037;-50
2023/07/28 00:28:48;;;;;;;10.07;3.60;;;19.00;99.90;;;;;;5032550;28;20037;-61
2023/07/28 00:31:14;;;;;;;8.82;4.28;;;19.00;99.90;;;;;;5032131;28;20018;-48
2023/07/28 00:33:40;;;;;;;6.45;3.88;;;19.00;99.90;;;;;;5032188;28;20079;-49
2023/07/28 00:36:05;;;;;;;15.13;4.65;;;19.00;99.90;;;;;;5032225;28;20013;-47
2023/07/28 00:38:31;;;;;;;10.25;4.22;;;19.00;99.90;;;;;;5032135;28;20033;-49
2023/07/28 00:40:57;;;;;;;10.32;3.95;;;19.10;99.90;;;;;;5045755;28;20469;-47
2023/07/28 00:43:23;;;;;;;7.90;4.45;;;19.10;99.90;;;;;;5052317;28;20021;-49
2023/07/28 00:45:49;;;;;;;13.20;4.75;;;19.10;99.90;;;;;;5052045;28;20531;-44
2023/07/28 00:48:15;;;;;;;6.57;3.88;;;19.10;99.90;;;;;;5051861;28;20502;-51
2023/07/28 00:50:44;;;;;;;12.73;5.65;;;19.10;99.90;;;;;;5051804;28;20017;-51
2023/07/28 00:53:09;;;;;;;8.93;4.95;;;19.10;99.90;;;;;;5051905;28;20025;-49
2023/07/28 00:55:35;;;;;;;9.60;3.97;;;19.10;99.90;;;;;;5052268;28;20021;-47
2023/07/28 00:58:01;;;;;;;10.77;5.75;;;19.10;99.90;;;;;;5054959;28;20367;-50
2023/07/28 01:00:27;;;;;;;10.90;4.70;;;19.10;99.90;;;;;;5055435;28;20466;-50
2023/07/28 01:02:52;;;;;;;9.57;4.30;;;19.10;99.90;;;;;;5055440;28;20516;-50
2023/07/28 01:05:19;;;;;;;11.30;5.65;;;19.00;99.90;;;;;;5054490;28;20417;-48
2023/07/28 01:07:54;;;;;;;11.82;5.38;;;19.00;99.90;;;;;;5054971;28;20021;-45
2023/07/28 01:10:28;;;;;;;14.85;6.82;;;19.00;99.90;;;;;;5055231;28;20123;-51
2023/07/28 01:12:53;;;;;;;17.35;6.32;;;19.00;99.90;;;;;;5055535;28;20470;-48
2023/07/28 01:15:19;;;;;;;13.07;6.43;;;19.00;99.90;;;;;;5049894;28;20017;-48
2023/07/28 01:17:45;;;;;;;11.85;6.10;;;19.00;99.90;;;;;;5035189;28;20390;-50
2023/07/28 01:20:11;;;;;;;11.98;5.25;;;19.00;99.90;;;;;;5035425;28;20425;-51
2023/07/28 01:22:45;;;;;;;16.33;5.20;;;18.90;99.90;;;;;;5038118;28;20518;-46
2023/07/28 01:25:36;;;;;;;10.05;5.35;;;19.00;99.90;;;;;;5054926;28;20086;-48
2023/07/28 01:28:02;;;;;;;16.33;6.85;;;19.00;99.90;;;;;;5054777;28;20060;-48
2023/07/28 01:30:29;;;;;;;10.45;5.60;;;19.00;99.90;;;;;;5054107;28;20489;-51
2023/07/28 01:32:56;;;;;;;20.30;5.63;;;19.00;99.90;;;;;;5054913;28;20025;-45
2023/07/28 01:35:22;;;;;;;18.00;6.95;;;19.00;99.90;;;;;;5054826;28;20025;-50
2023/07/28 01:37:50;;;;;;;12.63;6.18;;;19.00;99.90;;;;;;5054837;28;20025;-50
2023/07/28 01:40:17;;;;;;;13.40;6.00;;;19.00;99.90;;;;;;5055026;28;20474;-48
2023/07/28 01:42:43;;;;;;;12.80;6.45;;;18.90;99.90;;;;;;5055013;28;20021;-47
2023/07/28 01:45:09;;;;;;;12.43;6.85;;;18.80;99.90;;;;;;5054519;28;20028;-49
2023/07/28 01:47:35;;;;;;;14.68;6.38;;;18.70;99.90;;;;;;5053760;28;20402;-51
2023/07/28 01:50:00;;;;;;;19.55;6.43;;;18.70;99.90;;;;;;5054977;28;20055;-52
2023/07/28 01:52:26;;;;;;;20.35;7.50;;;18.70;99.90;;;;;;5054528;28;20033;-50
2023/07/28 01:54:52;;;;;;;15.27;7.50;;;18.70;99.90;;;;;;5054551;28;20539;-48
2023/07/28 01:57:17;;;;;;;22.27;7.68;;;18.60;99.90;;;;;;5054785;28;20492;-47
2023/07/28 01:59:43;;;;;;;16.85;6.60;;;18.60;99.90;;;;;;5054349;28;20044;-48
2023/07/28 02:02:09;;;;;;;12.10;6.72;;;18.60;99.90;;;;;;5054397;28;20287;-49
2023/07/28 02:04:35;;;;;;;16.30;7.22;;;18.60;99.90;;;;;;5053583;28;20044;-49
2023/07/28 02:07:01;;;;;;;15.90;7.15;;;18.60;99.90;;;;;;5054199;28;20496;-50
2023/07/28 02:09:26;;;;;;;13.07;6.22;;;18.60;99.90;;;;;;5053841;28;20385;-49
2023/07/28 02:11:52;;;;;;;18.10;6.45;;;18.60;99.90;;;;;;5054115;28;20021;-49
2023/07/28 02:14:18;;;;;;;16.17;6.22;;;18.60;99.90;;;;;;5054176;28;20040;-49
2023/07/28 02:16:44;;;;;;;14.73;6.90;;;18.60;99.90;;;;;;5054078;28;20100;-48
2023/07/28 02:19:09;;;;;;;16.13;8.13;;;18.60;99.90;;;;;;5053930;28;20052;-46
2023/07/28 02:21:35;;;;;;;19.58;7.07;;;18.60;99.90;;;;;;5051288;28;20025;-47
2023/07/28 02:24:01;;;;;;;23.10;7.53;;;18.60;99.90;;;;;;5048608;28;20025;-47
2023/07/28 02:26:26;;;;;;;18.92;7.80;;;18.60;99.90;;;;;;5053845;28;20497;-51
2023/07/28 02:28:52;;;;;;;17.85;6.30;;;18.60;99.90;;;;;;5053738;28;20120;-50
2023/07/28 02:31:18;;;;;;;20.00;7.22;;;18.60;99.90;;;;;;5053822;28;20021;-51
2023/07/28 02:33:44;;;;;;;18.38;7.22;;;18.60;99.90;;;;;;5054017;28;20511;-48
2023/07/28 02:36:09;;;;;;;17.45;7.60;;;18.60;99.90;;;;;;5053665;28;20397;-49
2023/07/28 02:38:35;;;;;;;20.70;7.75;;;18.60;99.90;;;;;;5053142;28;20025;-50
2023/07/28 02:41:03;;;;;;;18.23;6.28;;;18.70;99.90;;;;;;5053594;28;20029;-50
2023/07/28 02:43:28;;;;;;;16.00;6.72;;;18.60;99.90;;;;;;5052518;28;20029;-50
2023/07/28 02:45:55;;;;;;;21.77;6.47;;;18.60;99.90;;;;;;5053463;28;20552;-48
2023/07/28 02:48:22;;;;;;;17.08;7.20;;;18.60;99.90;;;;;;5053423;28;20370;-51
2023/07/28 02:50:52;;;;;;;16.63;7.15;;;18.60;99.90;;;;;;5053712;28;20025;-43
2023/07/28 02:53:18;;;;;;;14.30;6.10;;;18.60;99.90;;;;;;5053400;28;20021;-49
2023/07/28 02:55:44;;;;;;;22.15;7.07;;;18.60;99.90;;;;;;5052635;28;20461;-51
2023/07/28 02:58:10;;;;;;;27.13;6.63;;;18.60;99.90;;;;;;5053474;28;20029;-50
2023/07/28 03:00:40;;;;;;;17.25;6.38;;;18.60;99.90;;;;;;5053276;28;20500;-51
2023/07/28 03:03:07;;;;;;;21.85;8.15;;;18.60;99.90;;;;;;5069595;28;20037;-48
2023/07/28 03:05:32;;;;;;;21.48;6.72;;;18.60;99.90;;;;;;5073041;28;20424;-48
2023/07/28 03:07:58;;;;;;;19.92;7.10;;;18.70;99.90;;;;;;5073034;28;20036;-47
2023/07/28 03:10:25;;;;;;;19.23;5.47;;;18.70;99.90;;;;;;5073314;28;20027;-49
2023/07/28 03:12:50;;;;;;;18.08;6.50;;;18.70;99.90;;;;;;5067376;28;20519;-49
2023/07/28 03:15:16;;;;;;;23.67;7.15;;;18.70;99.90;;;;;;5049041;28;20022;-46
2023/07/28 03:17:42;;;;;;;22.88;7.03;;;18.70;99.90;;;;;;5034001;28;20030;-47
2023/07/28 03:20:08;;;;;;;13.68;6.78;;;18.70;99.90;;;;;;5052287;28;20469;-49
2023/07/28 03:22:34;;;;;;;22.48;7.55;;;18.70;99.90;;;;;;5052854;28;20079;-48
2023/07/28 03:24:59;;;;;;;26.08;8.13;;;18.70;99.90;;;;;;5053055;28;20025;-49
2023/07/28 03:27:25;;;;;;;30.17;7.28;;;18.70;99.90;;;;;;5052790;28;20021;-49
2023/07/28 03:29:51;;;;;;;29.85;8.00;;;18.70;99.90;;;;;;5052294;28;20033;-49
2023/07/28 03:32:17;;;;;;;14.00;6.90;;;18.70;99.90;;;;;;5052768;28;20017;-51
2023/07/28 03:34:42;;;;;;;24.50;7.88;;;18.70;99.90;;;;;;5052776;28;20028;-51
2023/07/28 03:37:08;;;;;;;22.92;8.15;;;18.80;99.90;;;;;;5052717;28;20359;-49
2023/07/28 03:39:34;;;;;;;30.00;8.75;;;18.80;99.90;;;;;;5052625;28;20022;-45
2023/07/28 03:41:59;;;;;;;24.42;8.40;;;18.80;99.90;;;;;;5052725;28;20032;-54
2023/07/28 03:44:25;;;;;;;19.88;7.72;;;18.80;99.90;;;;;;5052432;28;20025;-47
2023/07/28 03:46:51;;;;;;;16.08;7.35;;;18.80;99.90;;;;;;5051423;28;20045;-48
2023/07/28 03:49:17;;;;;;;13.43;6.93;;;18.80;99.90;;;;;;5052592;28;20501;-50
2023/07/28 03:51:42;;;;;;;28.50;7.95;;;18.80;99.90;;;;;;5052487;28;20055;-50
2023/07/28 03:54:08;;;;;;;22.60;8.85;;;18.80;99.90;;;;;;5052828;28;20018;-50
2023/07/28 03:56:34;;;;;;;24.83;8.55;;;18.80;99.90;;;;;;5052603;28;20100;-46
2023/07/28 03:58:59;;;;;;;24.17;8.70;;;18.80;99.90;;;;;;5052488;28;20037;-44
2023/07/28 04:01:25;;;;;;;17.17;8.00;;;18.80;99.90;;;;;;5052802;28;20025;-51
2023/07/28 04:03:51;;;;;;;32.83;8.73;;;18.90;99.90;;;;;;5048159;28;20117;-51
2023/07/28 04:06:16;;;;;;;29.35;7.97;;;18.80;99.90;;;;;;5032811;28;20021;-48
2023/07/28 04:08:42;;;;;;;24.73;8.50;;;18.80;99.90;;;;;;5032681;28;20022;-50
2023/07/28 04:11:08;;;;;;;29.45;8.60;;;18.80;99.90;;;;;;5043443;28;20100;-45
2023/07/28 04:13:34;;;;;;;28.05;8.18;;;18.80;99.90;;;;;;5052328;28;20021;-48
2023/07/28 04:16:01;;;;;;;31.08;9.40;;;18.80;99.90;;;;;;5046708;28;20040;-45
2023/07/28 04:18:26;;;;;;;27.60;8.65;;;18.80;99.90;;;;;;5051867;28;20037;-50
2023/07/28 04:20:52;;;;;;;23.88;9.02;;;18.80;99.90;;;;;;5050462;28;20116;-45
2023/07/28 04:23:18;;;;;;;21.52;7.70;;;18.90;99.90;;;;;;5052310;28;20021;-50
2023/07/28 04:25:43;;;;;;;25.13;8.48;;;18.90;99.90;;;;;;5052054;28;20017;-48
2023/07/28 04:28:09;;;;;;;20.33;8.98;;;18.80;99.90;;;;;;5051635;28;20037;-47
2023/07/28 04:30:34;;;;;;;15.05;7.43;;;18.90;99.90;;;;;;5051954;28;20025;-50
2023/07/28 04:33:00;;;;;;;26.70;8.38;;;18.90;99.90;;;;;;5056187;28;20466;-48
2023/07/28 04:35:26;;;;;;;27.05;8.70;;;18.90;99.90;;;;;;5054502;28;20021;-51
2023/07/28 04:37:51;;;;;;;24.42;9.35;;;18.90;99.90;;;;;;5053027;28;20029;-41
2023/07/28 04:40:17;;;;;;;23.85;8.30;;;18.90;99.90;;;;;;5054404;28;20028;-50
2023/07/28 04:42:43;;;;;;;29.55;8.73;;;18.90;99.90;;;;;;5051426;28;20132;-42
2023/07/28 04:45:09;;;;;;;23.40;9.02;;;18.90;99.90;;;;;;5048292;28;20025;-48
2023/07/28 04:47:34;;;;;;;27.15;8.35;;;18.90;99.90;;;;;;5050260;28;20065;-51
2023/07/28 04:50:00;;;;;;;34.60;9.88;;;19.00;99.90;;;;;;5055583;28;20064;-49
2023/07/28 04:52:26;;;;;;;20.98;8.00;;;19.00;99.90;;;;;;5054573;28;20492;-50
2023/07/28 04:54:51;;;;;;;28.92;9.35;;;19.00;99.90;;;;;;5050188;28;20025;-48
2023/07/28 04:57:19;;;;;;;27.02;8.57;;;18.90;99.90;;;;;;5053582;28;20112;-51
2023/07/28 04:59:44;;;;;;;28.45;9.57;;;19.00;99.90;;;;;;5054233;28;20485;-45
2023/07/28 05:02:10;;;;;;;29.23;8.00;;;19.00;99.90;;;;;;5054488;28;20056;-33
2023/07/28 05:04:36;;;;;;;26.27;8.73;;;19.00;99.90;;;;;;5038919;28;20041;-32
2023/07/28 05:07:03;;;;;;;36.42;9.63;;;19.00;99.90;;;;;;5043110;28;20591;-33
2023/07/28 05:09:28;;;;;;;26.00;8.45;;;19.00;99.90;;;;;;5053258;28;20539;-32
2023/07/28 05:11:54;;;;;;;34.15;9.27;;;19.00;99.90;;;;;;5052878;28;20021;-33
2023/07/28 05:14:20;;;;;;;31.13;8.90;;;19.00;99.90;;;;;;5053274;28;20501;-34
2023/07/28 05:16:46;;;;;;;26.83;8.82;;;19.00;99.90;;;;;;5052513;28;20021;-33
2023/07/28 05:19:12;;;;;;;29.00;9.00;;;19.00;99.90;;;;;;5054012;28;20029;-32
2023/07/28 05:21:38;;;;;;;28.70;9.27;;;19.00;99.90;;;;;;5054115;28;20031;-32
2023/07/28 05:24:04;;;;;;;26.10;7.93;;;19.00;99.90;;;;;;5054940;28;20386;-32
2023/07/28 05:26:29;;;;;;;22.30;8.63;;;19.10;99.90;;;;;;5051023;28;20493;-33
2023/07/28 05:28:55;;;;;;;17.02;8.43;;;19.10;99.90;;;;;;5052902;28;20032;-33
2023/07/28 05:31:21;;;;;;;28.17;8.23;;;19.10;99.90;;;;;;5053742;28;20094;-34
2023/07/28 05:33:46;;;;;;;20.63;9.00;;;19.10;99.90;;;;;;5054216;28;20032;-34
2023/07/28 05:36:12;;;;;;;19.20;8.32;;;19.10;99.90;;;;;;5050784;28;20025;-34
2023/07/28 05:38:38;;;;;;;21.55;8.70;;;19.10;99.90;;;;;;5052057;28;20075;-33
2023/07/28 05:41:04;;;;;;;24.48;8.93;;;19.10;99.90;;;;;;5053341;28;20029;-31
2023/07/28 05:43:31;;;;;;;24.88;8.18;;;19.10;99.90;;;;;;5051498;28;20452;-34
2023/07/28 05:45:58;;;;;;;17.27;7.63;;;19.10;99.90;;;;;;5050989;28;20037;-32
2023/07/28 05:48:24;;;;;;;34.67;10.25;;;19.10;99.90;;;;;;5050762;28;20033;-33
2023/07/28 05:50:51;;;;;;;21.42;8.00;;;19.10;99.90;;;;;;5054650;28;20430;-34
2023/07/28 05:53:17;;;;;;;22.23;8.65;;;19.10;99.90;;;;;;5054515;28;20028;-33
2023/07/28 05:55:42;;;;;;;30.65;8.30;;;19.20;99.90;;;;;;5052530;28;20021;-33
2023/07/28 05:58:08;;;;;;;27.60;8.35;;;19.10;99.90;;;;;;5051411;28;20060;-33
2023/07/28 06:00:33;;;;;;;30.65;9.20;;;19.10;99.90;;;;;;5051734;28;20023;-33
2023/07/28 06:02:59;;;;;;;29.92;8.25;;;19.20;99.90;;;;;;5053154;28;20029;-33
2023/07/28 06:05:25;;;;;;;20.15;8.18;;;19.20;99.90;;;;;;5053250;28;20090;-33
2023/07/28 06:07:50;;;;;;;22.20;8.48;;;19.20;99.90;;;;;;5051141;28;20043;-34
2023/07/28 06:10:16;;;;;;;28.90;9.68;;;19.20;99.90;;;;;;5052109;28;20491;-33
2023/07/28 06:12:41;;;;;;;17.85;8.02;;;19.20;99.90;;;;;;5054157;28;20035;-33
2023/07/28 06:15:07;;;;;;;18.42;8.75;;;19.30;99.90;;;;;;5050804;28;20031;-33
2023/07/28 06:17:33;;;;;;;30.67;8.73;;;19.40;99.90;;;;;;5051055;28;20028;-33
2023/07/28 06:19:59;;;;;;;19.13;8.40;;;19.40;99.90;;;;;;5053240;28;20033;-33
2023/07/28 06:22:24;;;;;;;18.20;8.30;;;19.30;99.90;;;;;;5052780;28;20540;-33
2023/07/28 06:24:50;;;;;;;26.13;9.13;;;19.40;99.90;;;;;;5051932;28;20053;-33
2023/07/28 06:27:16;;;;;;;30.33;9.20;;;19.40;99.90;;;;;;5052721;28;20021;-34
2023/07/28 06:29:41;;;;;;;14.35;7.10;;;19.40;99.90;;;;;;5052216;28;20124;-33
2023/07/28 06:32:08;;;;;;;16.95;8.23;;;19.40;99.90;;;;;;5052863;28;20112;-35
2023/07/28 06:34:33;;;;;;;23.35;8.07;;;19.40;99.90;;;;;;5051224;28;20025;-34
2023/07/28 06:36:59;;;;;;;26.02;7.75;;;19.40;99.90;;;;;;5050924;28;20547;-33
2023/07/28 06:39:24;;;;;;;21.83;7.97;;;19.40;99.90;;;;;;5052500;28;20111;-33
2023/07/28 06:41:50;;;;;;;22.98;8.18;;;19.40;99.90;;;;;;5049523;28;20108;-34
2023/07/28 06:44:17;;;;;;;20.15;7.72;;;19.40;99.90;;;;;;5053597;28;20414;-34
2023/07/28 06:46:43;;;;;;;25.83;8.50;;;19.40;99.90;;;;;;5051764;28;20486;-33
2023/07/28 06:49:08;;;;;;;20.63;7.60;;;19.40;99.90;;;;;;5052151;28;20021;-33
2023/07/28 06:51:34;;;;;;;22.15;7.43;;;19.40;99.90;;;;;;5043424;28;20032;-35
2023/07/28 06:53:59;;;;;;;18.40;8.43;;;19.40;99.90;;;;;;5045906;28;20033;-32
2023/07/28 06:56:25;;;;;;;21.73;8.55;;;19.40;99.90;;;;;;5051926;28;20432;-33
2023/07/28 06:58:51;;;;;;;21.17;8.57;;;19.50;99.90;;;;;;5051157;28;20074;-35
2023/07/28 07:01:17;;;;;;;24.02;8.55;;;19.50;99.90;;;;;;5052579;28;20025;-34
2023/07/28 07:03:43;;;;;;;30.27;10.87;;;19.50;99.90;;;;;;5048653;28;20032;-35
2023/07/28 07:06:09;;;;;;;24.40;8.98;;;19.50;99.90;;;;;;5053197;28;20060;-34
2023/07/28 07:08:35;;;;;;;19.30;8.43;;;19.60;99.90;;;;;;5051505;28;20479;-32
2023/07/28 07:11:00;;;;;;;19.73;8.35;;;19.60;99.90;;;;;;5044728;28;20021;-34
2023/07/28 07:13:26;;;;;;;19.15;8.20;;;19.70;99.90;;;;;;5040708;28;20536;-34
2023/07/28 07:15:51;;;;;;;28.45;9.00;;;19.70;99.90;;;;;;5050762;28;20043;-35
2023/07/28 07:18:17;;;;;;;16.23;7.90;;;19.80;99.90;;;;;;5050235;28;20041;-34
2023/07/28 07:20:43;;;;;;;24.60;9.07;;;19.80;99.90;;;;;;5051684;28;20465;-34
2023/07/28 07:23:08;;;;;;;22.25;8.63;;;19.90;99.90;;;;;;5048283;28;20416;-34
2023/07/28 07:25:34;;;;;;;23.17;8.40;;;19.80;99.90;;;;;;5048397;28;20078;-34
2023/07/28 07:27:59;;;;;;;15.57;7.50;;;19.90;99.90;;;;;;5050118;28;20043;-37
2023/07/28 07:30:25;;;;;;;14.27;7.07;;;19.90;99.90;;;;;;5051082;28;20021;-52
2023/07/28 07:32:51;;;;;;;16.33;6.30;;;19.80;99.90;;;;;;5052666;28;20530;-50
2023/07/28 07:35:17;;;;;;;17.90;7.93;;;19.90;99.90;;;;;;5049564;28;20095;-49
2023/07/28 07:37:43;;;;;;;12.80;6.47;;;19.80;99.90;;;;;;5049154;28;20025;-51
2023/07/28 07:40:09;;;;;;;20.73;7.13;;;19.90;99.90;;;;;;5050112;28;20025;-46
2023/07/28 07:42:47;;;;;;;16.70;6.43;;;19.80;99.90;;;;;;5048618;28;20031;-50
2023/07/28 07:45:14;;;;;;;11.50;6.03;;;19.80;99.90;;;;;;5051017;28;20100;-49
2023/07/28 07:47:40;;;;;;;16.80;7.32;;;19.80;99.90;;;;;;5051310;28;20055;-52
2023/07/28 07:50:10;;;;;;;17.05;6.55;;;19.90;99.90;;;;;;5051092;28;20025;-52
2023/07/28 07:52:36;;;;;;;13.52;6.60;;;19.90;99.90;;;;;;5049257;28;20102;-44
2023/07/28 07:55:03;;;;;;;12.23;6.10;;;19.90;99.90;;;;;;5051172;28;20025;-51
2023/07/28 07:57:29;;;;;;;11.20;6.35;;;19.90;99.90;;;;;;5052665;28;20029;-47
2023/07/28 07:59:57;;;;;;;15.48;6.05;;;19.80;99.90;;;;;;5048976;28;20029;-51
2023/07/28 08:02:23;;;;;;;9.32;6.07;;;19.90;99.90;;;;;;5051347;28;20036;-53
2023/07/28 08:04:50;;;;;;;12.98;6.70;;;20.00;99.90;;;;;;5045508;28;20021;-51
2023/07/28 08:07:19;;;;;;;15.82;6.15;;;20.00;99.90;;;;;;5055145;28;20382;-51
2023/07/28 08:09:45;;;;;;;13.63;5.88;;;20.10;99.90;;;;;;5052407;28;20536;-52
2023/07/28 08:12:12;;;;;;;8.25;5.72;;;20.20;99.90;;;;;;5055311;28;20116;-52
2023/07/28 08:14:38;;;;;;;11.70;5.10;;;20.30;99.90;;;;;;5055046;28;20424;-49
2023/07/28 08:17:03;;;;;;;15.63;5.20;;;20.40;99.90;;;;;;5056414;28;20100;-47
2023/07/28 08:19:29;;;;;;;11.65;5.05;;;20.40;99.90;;;;;;5053848;28;20551;-49
2023/07/28 08:21:55;;;;;;;10.57;5.60;;;20.40;99.90;;;;;;5054974;28;20415;-49
2023/07/28 08:24:20;;;;;;;11.85;5.38;;;20.40;99.90;;;;;;5051093;28;20536;-45
2023/07/28 08:26:46;;;;;;;8.90;5.70;;;20.50;99.90;;;;;;5054819;28;20108;-50
2023/07/28 08:29:12;;;;;;;6.25;4.25;;;20.60;99.90;;;;;;5053638;28;20493;-50
2023/07/28 08:31:37;;;;;;;8.52;4.68;;;20.70;99.90;;;;;;5044640;28;20050;-51
2023/07/28 08:34:03;;;;;;;9.65;5.40;;;20.90;99.90;;;;;;5053969;28;20017;-51
2023/07/28 08:36:29;;;;;;;11.38;5.55;;;21.00;99.90;;;;;;5045969;28;20026;-49
2023/07/28 08:38:54;;;;;;;10.18;5.88;;;21.10;99.90;;;;;;5043618;28;20025;-52
2023/07/28 08:41:20;;;;;;;9.27;5.18;;;21.10;99.90;;;;;;5052795;28;20029;-35
2023/07/28 08:43:46;;;;;;;5.00;3.60;;;21.30;99.90;;;;;;5052529;28;20029;-35
2023/07/28 08:46:12;;;;;;;10.68;3.97;;;21.60;99.90;;;;;;5053474;28;20029;-36
2023/07/28 08:48:37;;;;;;;5.35;3.00;;;22.00;99.90;;;;;;5052790;28;20052;-35
2023/07/28 08:51:08;;;;;;;5.35;2.60;;;22.20;99.90;;;;;;5054095;28;20021;-35
2023/07/28 08:53:33;;;;;;;10.13;3.42;;;22.20;99.90;;;;;;5050592;28;20474;-35
2023/07/28 08:55:59;;;;;;;4.43;2.60;;;22.30;99.90;;;;;;5055846;28;20100;-35
2023/07/28 08:58:25;;;;;;;5.47;2.45;;;22.50;99.90;;;;;;5048622;28;20079;-34
2023/07/28 09:00:52;;;;;;;5.53;3.08;;;22.90;99.90;;;;;;5046791;28;20021;-35
2023/07/28 09:03:18;;;;;;;7.43;2.55;;;23.40;99.90;;;;;;5049003;28;20429;-35
2023/07/28 09:05:46;;;;;;;5.83;3.30;;;23.50;99.90;;;;;;5045351;28;20068;-36
2023/07/28 09:08:12;;;;;;;;;;;23.60;99.90;;;;;;5049446;28;20411;-35
2023/07/28 09:10:46;;;;;;;5.37;2.40;;;23.70;99.90;;;;;;5048566;28;19912;-35
2023/07/28 09:13:13;;;;;;;4.38;2.80;;;23.90;99.90;;;;;;5044417;28;20021;-63
2023/07/28 09:15:39;;;;;;;2.70;2.40;;;23.80;99.90;;;;;;5046019;28;20029;-48
2023/07/28 09:18:12;;;;;;;8.07;3.22;;;23.60;99.90;;;;;;5042889;28;20071;-49
2023/07/28 09:20:43;;;;;;;7.75;3.67;;;23.40;99.90;;;;;;5041355;28;20378;-52
2023/07/28 09:23:10;;;;;;;7.68;2.78;;;23.20;99.90;;;;;;5047798;28;20025;-52
2023/07/28 09:25:37;;;;;;;9.13;3.75;;;23.00;99.90;;;;;;5038359;28;20029;-51
2023/07/28 09:28:03;;;;;;;4.57;3.35;;;22.90;99.90;;;;;;5054187;28;20109;-47
2023/07/28 09:30:47;;;;;;;10.80;3.72;;;22.80;99.90;;;;;;5054925;28;20067;-51
2023/07/28 09:33:13;;;;;;;9.77;4.38;;;23.00;99.90;;;;;;5054710;28;20035;-48
2023/07/28 09:35:49;;;;;;;8.60;3.38;;;22.90;99.90;;;;;;5047298;28;20104;-49
2023/07/28 09:38:16;;;;;;;14.15;4.32;;;22.80;99.90;;;;;;5051666;28;20040;-52
2023/07/28 09:40:43;;;;;;;5.13;3.00;;;22.60;99.90;;;;;;5042552;28;20025;-51
2023/07/28 09:43:10;;;;;;;7.80;3.13;;;22.50;99.90;;;;;;5053789;28;20108;-47
2023/07/28 09:45:36;;;;;;;8.30;3.28;;;22.60;99.90;;;;;;5040689;28;20063;-50
2023/07/28 09:48:04;;;;;;;6.32;3.08;;;22.80;99.90;;;;;;5036310;28;20049;-46
2023/07/28 09:50:34;;;;;;;10.55;3.75;;;22.80;99.90;;;;;;5043182;28;20028;-51
2023/07/28 09:53:03;;;;;;;6.38;3.55;;;22.90;99.90;;;;;;5041213;28;20109;-48
2023/07/28 09:55:29;;;;;;;13.68;3.60;;;22.90;99.90;;;;;;5041813;28;20466;-47
2023/07/28 09:57:57;;;;;;;7.53;2.97;;;23.20;99.90;;;;;;5045185;28;20032;-50
2023/07/28 10:00:23;;;;;;;5.35;3.10;;;23.30;99.90;;;;;;5035400;28;20051;-49
2023/07/28 10:02:52;;;;;;;3.83;3.28;;;23.40;99.90;;;;;;5036999;28;20100;-63
2023/07/28 10:05:18;;;;;;;5.85;3.42;;;23.70;99.90;;;;;;5041314;28;20037;-48
2023/07/28 10:07:45;;;;;;;6.03;3.45;;;24.20;99.90;;;;;;5037115;28;20363;-50
2023/07/28 10:10:12;;;;;;;6.63;3.25;;;24.80;99.90;;;;;;5041267;28;20017;-51
2023/07/28 10:12:52;;;;;;;6.55;3.45;;;25.10;99.90;;;;;;5048035;28;20104;-48
2023/07/28 10:15:20;;;;;;;5.63;3.45;;;25.20;99.90;;;;;;5052007;28;20044;-50
2023/07/28 10:17:57;;;;;;;4.05;3.30;;;25.40;99.90;;;;;;5041589;28;20108;-51
2023/07/28 10:20:34;;;;;;;4.07;3.20;;;25.90;99.90;;;;;;5054392;28;20359;-51
2023/07/28 10:23:26;;;;;;;7.03;3.33;;;26.20;99.90;;;;;;5048269;28;20061;-52
2023/07/28 10:26:01;;;;;;;5.85;3.72;;;25.80;99.90;;;;;;5035902;28;20652;-53
2023/07/28 10:28:32;;;;;;;6.95;3.35;;;25.50;99.90;;;;;;5042808;28;20478;-52
2023/07/28 10:30:59;;;;;;;5.53;3.13;;;25.20;99.90;;;;;;5053758;28;20029;-52
2023/07/28 10:33:33;;;;;;;6.55;3.03;;;25.40;99.90;;;;;;5036989;28;20565;-54
2023/07/28 10:36:32;;;;;;;6.88;3.22;;;25.40;99.90;;;;;;5047817;28;20017;-52
2023/07/28 10:39:17;;;;;;;8.40;3.47;;;25.30;99.90;;;;;;5053362;28;20036;-52
2023/07/28 10:42:01;;;;;;;4.32;3.25;;;25.30;99.90;;;;;;5053628;28;20104;-51
2023/07/28 10:44:28;;;;;;;4.70;2.80;;;25.20;99.90;;;;;;5053381;28;20029;-52
2023/07/28 10:46:54;;;;;;;4.70;3.60;;;25.30;99.90;;;;;;5053512;28;20045;-36
2023/07/28 10:49:20;;;;;;;4.73;3.30;;;25.30;99.90;;;;;;5053441;28;20033;-35
2023/07/28 10:51:46;;;;;;;5.13;3.22;;;25.20;99.90;;;;;;5047091;28;20275;-34
2023/07/28 10:54:16;;;;;;;3.30;3.00;;;24.90;99.90;;;;;;5052348;28;20131;-33
2023/07/28 10:56:42;;;;;;;6.65;3.05;;;24.50;99.90;;;;;;5048022;28;20389;-35
2023/07/28 10:59:08;;;;;;;5.25;3.78;;;24.40;99.90;;;;;;5051051;28;20029;-36
2023/07/28 11:01:35;;;;;;;8.07;3.53;;;24.30;99.90;;;;;;5049483;28;20120;-36
2023/07/28 11:04:20;;;;;;;4.95;3.13;;;24.30;99.90;;;;;;5051546;28;20033;-34
2023/07/28 11:06:50;;;;;;;6.45;3.20;;;24.50;99.90;;;;;;5050267;28;20500;-36
2023/07/28 11:09:22;;;;;;;6.65;3.38;;;24.60;99.90;;;;;;5052363;28;20075;-36
2023/07/28 11:11:50;;;;;;;4.25;3.33;;;24.50;99.90;;;;;;5050498;28;20025;-35
2023/07/28 11:14:17;;;;;;;5.78;3.10;;;24.40;99.90;;;;;;5049172;28;20021;-35
2023/07/28 11:16:44;;;;;;;;;;;24.40;99.90;;;;;;5053376;28;20021;-35
2023/07/28 11:19:13;;;;;;;9.10;3.67;;;24.60;99.90;;;;;;5052947;28;19909;-35
2023/07/28 11:21:43;;;;;;;6.60;3.35;;;24.60;99.90;;;;;;5049548;28;20060;-35
2023/07/28 11:24:10;;;;;;;11.38;4.22;;;24.40;99.90;;;;;;5050691;28;20021;-37
2023/07/28 11:26:37;;;;;;;6.20;3.80;;;24.30;99.90;;;;;;5052287;28;20047;-36
2023/07/28 11:29:04;;;;;;;4.72;3.30;;;24.40;99.90;;;;;;5052721;28;20079;-34
2023/07/28 11:31:30;;;;;;;6.05;2.90;;;24.60;99.90;;;;;;5049191;28;20033;-34
2023/07/28 11:33:56;;;;;;;10.77;3.22;;;24.60;99.90;;;;;;5061110;28;20100;-35
2023/07/28 11:36:26;;;;;;;7.90;2.78;;;24.50;99.90;;;;;;5042319;28;20117;-36
2023/07/28 11:38:54;;;;;;;6.15;3.67;;;24.30;99.90;;;;;;5047445;28;20496;-34
2023/07/28 11:41:20;;;;;;;5.00;3.20;;;24.40;99.90;;;;;;5046467;28;20049;-35
2023/07/28 11:43:48;;;;;;;6.20;2.97;;;24.50;99.90;;;;;;5034135;28;20102;-35
2023/07/28 11:46:32;;;;;;;5.38;4.03;;;24.40;99.90;;;;;;5032750;28;20018;-35
2023/07/28 11:49:21;;;;;;;11.13;3.90;;;24.00;99.90;;;;;;5037888;28;20063;-35
2023/07/28 11:51:49;;;;;;;5.38;4.00;;;23.60;99.90;;;;;;5049243;28;20024;-35
2023/07/28 11:54:16;;;;;;;6.10;3.92;;;23.40;99.90;;;;;;5039497;28;20033;-39
2023/07/28 11:56:46;;;;;;;6.25;4.35;;;23.50;99.90;;;;;;5047405;28;20025;-36
2023/07/28 11:59:15;;;;;;;4.40;3.28;;;23.60;99.90;;;;;;5044062;28;20036;-36
2023/07/28 12:01:57;;;;;;;6.85;3.50;;;23.80;99.90;;;;;;5034537;28;20963;-36
2023/07/28 12:04:28;;;;;;;5.13;3.72;;;24.00;99.90;;;;;;5039965;28;20083;-35
2023/07/28 12:07:13;;;;;;;3.60;3.30;;;24.00;99.90;;;;;;5051785;28;20524;-35
2023/07/28 12:09:59;;;;;;;5.07;3.53;;;23.80;99.90;;;;;;5034953;28;20091;-36
2023/07/28 12:12:30;;;;;;;6.32;3.72;;;23.60;99.90;;;;;;5035788;28;20029;-36
2023/07/28 12:15:04;;;;;;;8.40;4.55;;;23.50;99.90;;;;;;5042714;28;20024;-34
2023/07/28 12:17:30;;;;;;;5.88;3.53;;;23.50;99.90;;;;;;5051525;28;20083;-33
2023/07/28 12:20:01;;;;;;;11.25;3.75;;;23.80;99.90;;;;;;5052146;28;20025;-35
2023/07/28 12:22:27;;;;;;;5.47;3.53;;;24.10;99.90;;;;;;5050771;28;20028;-36
2023/07/28 12:24:54;;;;;;;4.35;3.28;;;23.80;99.90;;;;;;5051749;28;20079;-44
2023/07/28 12:27:26;;;;;;;8.27;4.00;;;23.70;99.90;;;;;;5052127;28;20039;-44
2023/07/28 12:29:52;;;;;;;5.03;2.78;;;24.10;99.90;;;;;;5052229;28;20031;-44
2023/07/28 12:32:18;;;;;;;3.90;2.65;;;24.60;99.90;;;;;;5038545;28;20060;-44
2023/07/28 12:34:44;;;;;;;3.63;2.92;;;24.80;99.90;;;;;;5051416;28;20024;-44
2023/07/28 12:37:10;;;;;;;3.85;3.03;;;24.80;99.90;;;;;;5052118;28;20432;-44
2023/07/28 12:39:40;;;;;;;4.95;3.05;;;24.60;99.90;;;;;;5052183;28;20079;-44
2023/07/28 12:42:07;;;;;;;5.15;3.20;;;24.30;99.90;;;;;;5049719;28;20417;-46